Saint-Ludger, Canada
Current Conditions -  °F | °C
As of 5:00 PM on Saturday 25 Oct 2014 (Local Time) from CYSC Reporting Station
Overcast Overcast  
Wind Chill: 54°   Ceiling: 4400
Heat Index: 54°   Visibility: 9mi
Dew Point: 43°   Wind: 3mph
Humidity: 67%   Direction: 190°S
Pressure: 29.52"   Gusts: NA
Location:  45.75°N, 70.7°W
Report Text: CYSC 252100Z AUTO 19003KT 9SM OVC044 12/06 A2952 RMK SLP004 DENSITY ALT 1100FT
Loading
Personal Weather Stations






























Interactive Weather Map
Tropical Storm Tracking
New forecast layout! Learn more

10-Day Weather Forecast

Advertisements
Track Severe Weather on mobile